Hauptseite
METAR-TAF:

METAR-TAF

Flughäfen :

Chongqing, China

Flughafen Chongqing-Jiangbei

Breite: 29-31N, Länge: 106-29E, Höhe: 351 m

Beobachtung

Neuester Wetterbericht von vor 30 Minuten, um 21:00 UTC
Wind 4 kt aus Nord/Nordwest
Temperatur 17°C
Luftfeuchtigkeit 82%
Luftdruck 1009 hPa
Sichtweite: 8000 m

METAR: ZUCK 292100Z 33002MPS 8000 NSC 17/14 Q1009 NOSIG

Zeit: 05:30 (21:30 UTC)

Prognose

Neuester Wetterbericht von vor 6 Stunden und 29 Minuten, um 15:01 UTC
Gültige Prognose vom 29 um 18 UTC bis 30 um 18 UTC
Wind 6 kt aus Nord/Nordost
Sichtweite: 5000 m
Aufgelockert bewölkt in der Höhe von 5000 ft
feuchter Dunst

TAF: ZUCK 291501Z 2918/3018 03003MPS 5000 BR SCT050 TX26/3007Z TN17/2922Z

Wetterbeobachtungen und Prognosen von mehr als 4000 Flughäfen (METAR und TAF Bericht).

Die verfügbaren Stationen werden durch gelbe und rote Markierungen auf der Karte dargestellt.

Führen Sie die Maus auf sie, um den Namen der Station zu sehen.

Darauf klicken, um die Beobachtung von Wetterbeobachtungen und Prognosen zu sehen.

Um die Karte zu ändern : klicken Sie auf den grünen Tasten mit einem schwarzen Kreuz Zum Vergrößern, auf den grünen Button mit einem Gedankenstrich zu verkleinern, oder auf die grünen Pfeile für benachbarte Karten.


METAR-TAF: